Time;durP1;ratioP1;P1;durP2;ratioP2;P2;SDS_P1;SDS_P2;PMS_P1;PMS_P2;Temp;Humidity;BMP_temperature;BMP_pressure;BME280_temperature;BME280_humidity;BME280_pressure;Samples;Min_cycle;Max_cycle;Signal;HPM_P1;HPM_P2
2024/03/01 06:02:22;;;;;;;85.70;30.40;;;;;;;;;;5600943;23;20495;-78
2024/03/01 06:04:48;;;;;;;90.10;32.47;;;;;;;;;;5030770;28;20801;-78
2024/03/01 06:07:14;;;;;;;74.13;31.20;;;;;;;;;;5027490;28;20580;-78
2024/03/01 06:09:40;;;;;;;85.40;33.00;;;;;;;;;;5032000;28;20449;-78
2024/03/01 06:12:06;;;;;;;82.40;30.20;;;;;;;;;;5018361;28;20442;-77
2024/03/01 06:14:32;;;;;;;85.57;31.40;;;;;;;;;;5000467;28;20480;-78
2024/03/01 06:16:58;;;;;;;89.73;34.97;;;;;;;;;;5037981;22;20497;-74
2024/03/01 06:19:24;;;;;;;85.47;29.27;;;;;;;;;;5001821;28;20485;-74
2024/03/01 06:21:50;;;;;;;73.20;33.17;;;;;;;;;;5005886;28;20433;-77
2024/03/01 06:24:16;;;;;;;75.17;28.60;;;;;;;;;;5008877;28;20508;-76
2024/03/01 06:26:43;;;;;;;90.53;31.87;;;;;;;;;;5007965;28;20454;-73
2024/03/01 06:29:09;;;;;;;87.20;31.17;;;;;;;;;;5009957;28;20434;-72
2024/03/01 06:31:35;;;;;;;76.63;30.53;;;;;;;;;;5001784;28;20430;-72
2024/03/01 06:34:00;;;;;;;80.70;32.40;;;;;;;;;;5001990;28;20441;-71
2024/03/01 06:36:26;;;;;;;86.57;31.37;;;;;;;;;;4994602;28;20457;-72
2024/03/01 06:38:52;;;;;;;87.43;33.33;;;;;;;;;;4998376;28;20434;-72
2024/03/01 06:41:18;;;;;;;89.67;36.50;;;;;;;;;;4994206;28;20936;-72
2024/03/01 06:43:44;;;;;;;82.63;31.73;;;;;;;;;;4993937;28;20407;-72
2024/03/01 06:46:10;;;;;;;79.20;29.90;;;;;;;;;;4992158;28;20461;-72
2024/03/01 06:48:36;;;;;;;74.50;30.90;;;;;;;;;;4993737;28;20561;-72
2024/03/01 06:51:02;;;;;;;80.67;33.27;;;;;;;;;;4993130;28;20402;-72
2024/03/01 06:53:28;;;;;;;77.97;31.00;;;;;;;;;;4993192;28;20493;-72
2024/03/01 06:55:57;;;;;;;86.27;30.57;;;;;;;;;;4993625;28;20442;-71
2024/03/01 06:58:23;;;;;;;72.30;28.90;;;;;;;;;;4993564;28;20473;-72
2024/03/01 07:00:49;;;;;;;78.23;31.00;;;;;;;;;;4993601;28;20777;-72
2024/03/01 07:03:15;;;;;;;101.20;32.20;;;;;;;;;;4993148;28;20411;-71
2024/03/01 07:05:41;;;;;;;83.50;33.30;;;;;;;;;;4993549;28;20406;-73
2024/03/01 07:08:08;;;;;;;95.13;35.10;;;;;;;;;;4992705;28;20407;-73
2024/03/01 07:10:33;;;;;;;94.23;30.70;;;;;;;;;;4993687;28;20989;-72
2024/03/01 07:13:00;;;;;;;82.40;30.67;;;;;;;;;;4993252;28;20573;-71
2024/03/01 07:15:27;;;;;;;81.70;29.30;;;;;;;;;;4995115;28;20505;-71
2024/03/01 07:17:54;;;;;;;87.97;30.97;;;;;;;;;;4995017;28;20840;-72
2024/03/01 07:20:20;;;;;;;73.10;29.67;;;;;;;;;;4993178;28;20905;-72
2024/03/01 07:22:47;;;;;;;82.70;32.07;;;;;;;;;;4993371;28;20419;-71
2024/03/01 07:25:13;;;;;;;86.50;30.70;;;;;;;;;;4992314;28;20890;-71
2024/03/01 07:27:39;;;;;;;98.53;33.50;;;;;;;;;;4993264;28;20549;-72
2024/03/01 07:30:05;;;;;;;79.10;31.97;;;;;;;;;;4993165;28;20430;-73
2024/03/01 07:32:32;;;;;;;83.70;31.70;;;;;;;;;;4992061;28;20423;-72
2024/03/01 07:34:58;;;;;;;67.70;26.73;;;;;;;;;;4993550;28;20503;-72
2024/03/01 07:37:24;;;;;;;79.00;29.77;;;;;;;;;;4993308;28;20566;-71
2024/03/01 07:39:51;;;;;;;77.33;28.63;;;;;;;;;;4994174;28;20407;-72
2024/03/01 07:42:17;;;;;;;82.57;29.87;;;;;;;;;;4993558;28;20506;-72
2024/03/01 07:44:43;;;;;;;88.60;33.27;;;;;;;;;;4996505;28;20913;-72
2024/03/01 07:47:09;;;;;;;93.47;31.67;;;;;;;;;;4993416;28;20493;-71
2024/03/01 07:49:35;;;;;;;69.53;27.90;;;;;;;;;;4993412;28;20898;-73
2024/03/01 07:52:01;;;;;;;79.03;31.43;;;;;;;;;;4994211;28;20415;-72
2024/03/01 07:54:28;;;;;;;78.90;29.67;;;;;;;;;;4993843;28;20418;-71
2024/03/01 07:56:54;;;;;;;79.60;30.37;;;;;;;;;;5010978;28;20523;-71
2024/03/01 07:59:20;;;;;;;69.73;29.70;;;;;;;;;;5014115;28;20437;-71
2024/03/01 08:01:47;;;;;;;80.53;30.07;;;;;;;;;;5012794;28;20425;-72
2024/03/01 08:04:13;;;;;;;72.13;28.10;;;;;;;;;;5012942;28;20414;-73
2024/03/01 08:06:39;;;;;;;91.33;33.17;;;;;;;;;;5012745;28;21012;-73
2024/03/01 08:09:09;;;;;;;74.00;30.23;;;;;;;;;;5011412;28;20418;-72
2024/03/01 08:11:43;;;;;;;68.10;28.40;;;;;;;;;;5011542;28;20402;-71
2024/03/01 08:14:22;;;;;;;71.90;28.83;;;;;;;;;;5012012;28;20894;-72
2024/03/01 08:16:52;;;;;;;66.17;27.67;;;;;;;;;;5010751;28;20993;-71
2024/03/01 08:19:19;;;;;;;75.80;27.93;;;;;;;;;;5011101;28;20405;-72
2024/03/01 08:21:45;;;;;;;79.10;28.73;;;;;;;;;;5014938;28;20421;-72
2024/03/01 08:24:11;;;;;;;76.57;30.57;;;;;;;;;;5015755;28;20410;-72
2024/03/01 08:26:37;;;;;;;80.87;30.13;;;;;;;;;;5015218;28;20473;-72
2024/03/01 08:29:04;;;;;;;66.70;27.60;;;;;;;;;;5016135;28;20415;-71
2024/03/01 08:31:35;;;;;;;66.70;28.30;;;;;;;;;;5016412;28;20786;-72
2024/03/01 08:34:09;;;;;;;71.23;28.27;;;;;;;;;;5015861;28;20409;-71
2024/03/01 08:36:37;;;;;;;68.53;27.73;;;;;;;;;;5014999;28;20433;-72
2024/03/01 08:39:10;;;;;;;66.47;26.80;;;;;;;;;;5015210;28;20549;-73
2024/03/01 08:41:36;;;;;;;67.40;27.20;;;;;;;;;;5015324;28;20885;-72
2024/03/01 08:44:02;;;;;;;78.13;29.27;;;;;;;;;;5014086;28;20421;-71
2024/03/01 08:46:30;;;;;;;74.13;29.07;;;;;;;;;;5015087;28;20437;-71
2024/03/01 08:48:57;;;;;;;69.03;27.47;;;;;;;;;;5026377;28;20441;-73
2024/03/01 08:51:23;;;;;;;76.13;30.73;;;;;;;;;;5020052;28;20406;-73
2024/03/01 08:53:52;;;;;;;77.60;29.33;;;;;;;;;;5013622;28;20421;-72
2024/03/01 08:56:20;;;;;;;61.23;23.73;;;;;;;;;;5014932;28;20438;-72
2024/03/01 08:58:46;;;;;;;57.10;25.93;;;;;;;;;;5015528;28;20466;-73
2024/03/01 09:01:21;;;;;;;74.17;27.67;;;;;;;;;;5015933;28;20844;-71
2024/03/01 09:03:49;;;;;;;64.20;27.33;;;;;;;;;;5018450;28;20444;-72
2024/03/01 09:06:18;;;;;;;58.87;26.10;;;;;;;;;;5019131;28;20430;-71
2024/03/01 09:08:44;;;;;;;66.93;25.37;;;;;;;;;;5018021;28;20406;-72
2024/03/01 09:11:12;;;;;;;62.00;26.30;;;;;;;;;;5014990;28;20432;-73
2024/03/01 09:13:38;;;;;;;71.50;26.90;;;;;;;;;;5011165;28;20453;-72
2024/03/01 09:16:06;;;;;;;63.20;24.83;;;;;;;;;;5005834;28;20558;-73
2024/03/01 09:18:45;;;;;;;67.83;27.53;;;;;;;;;;4996554;28;20942;-73
2024/03/01 09:21:23;;;;;;;54.20;23.07;;;;;;;;;;4995111;28;20902;-72
2024/03/01 09:23:49;;;;;;;64.37;26.20;;;;;;;;;;4994382;28;20418;-73
2024/03/01 09:26:15;;;;;;;64.83;24.87;;;;;;;;;;4993826;28;20438;-73
2024/03/01 09:28:41;;;;;;;65.70;24.87;;;;;;;;;;4994994;28;20423;-71
2024/03/01 09:31:08;;;;;;;67.57;23.60;;;;;;;;;;4995362;28;20434;-72
2024/03/01 09:33:34;;;;;;;61.60;25.00;;;;;;;;;;4994435;28;20411;-71
2024/03/01 09:36:00;;;;;;;51.43;23.40;;;;;;;;;;4994752;28;20438;-72
2024/03/01 09:38:26;;;;;;;55.73;22.43;;;;;;;;;;4994362;28;20468;-71
2024/03/01 09:41:04;;;;;;;55.20;25.60;;;;;;;;;;4993262;28;20906;-72
2024/03/01 09:43:51;;;;;;;53.33;23.83;;;;;;;;;;4994332;28;20932;-72
2024/03/01 09:46:34;;;;;;;52.43;21.73;;;;;;;;;;4994114;28;20929;-72
2024/03/01 09:49:07;;;;;;;55.60;23.20;;;;;;;;;;4994502;28;20403;-73
2024/03/01 09:51:37;;;;;;;57.73;23.30;;;;;;;;;;4993162;28;20422;-72
2024/03/01 09:54:15;;;;;;;70.33;25.27;;;;;;;;;;4992657;28;20491;-72
2024/03/01 09:56:50;;;;;;;58.00;24.03;;;;;;;;;;4992798;28;20435;-71
2024/03/01 09:59:24;;;;;;;60.00;25.57;;;;;;;;;;4995242;28;20438;-71
2024/03/01 10:01:59;;;;;;;60.40;25.53;;;;;;;;;;4993809;28;20469;-73
2024/03/01 10:04:43;;;;;;;54.40;23.97;;;;;;;;;;4995458;28;20415;-72
2024/03/01 10:07:22;;;;;;;62.07;25.00;;;;;;;;;;4996012;28;20431;-73
2024/03/01 10:09:51;;;;;;;58.23;23.73;;;;;;;;;;4994458;28;20471;-72
2024/03/01 10:12:34;;;;;;;52.40;23.83;;;;;;;;;;4994418;28;20929;-72
2024/03/01 10:15:01;;;;;;;54.03;23.47;;;;;;;;;;4994312;28;20422;-72
2024/03/01 10:17:48;;;;;;;61.30;25.40;;;;;;;;;;4995107;28;20565;-72
2024/03/01 10:20:29;;;;;;;52.73;24.20;;;;;;;;;;4964949;28;20458;-71
2024/03/01 10:23:03;;;;;;;53.83;24.60;;;;;;;;;;4993701;28;20415;-71
2024/03/01 10:25:32;;;;;;;50.00;22.47;;;;;;;;;;4993939;28;20411;-72
2024/03/01 10:28:14;;;;;;;52.07;23.00;;;;;;;;;;4992621;28;20447;-71
2024/03/01 10:30:49;;;;;;;56.10;24.63;;;;;;;;;;4993952;28;20826;-73
2024/03/01 10:33:33;;;;;;;54.83;21.70;;;;;;;;;;4993622;28;20406;-71
2024/03/01 10:36:05;;;;;;;53.00;22.60;;;;;;;;;;4993953;28;20485;-72
2024/03/01 10:38:45;;;;;;;43.40;20.07;;;;;;;;;;4993978;28;20819;-72
2024/03/01 10:41:17;;;;;;;58.20;21.00;;;;;;;;;;4997898;28;20409;-73
2024/03/01 10:43:57;;;;;;;47.87;22.20;;;;;;;;;;4997756;28;20411;-73
2024/03/01 10:46:36;;;;;;;42.33;20.20;;;;;;;;;;4997846;28;20853;-73
2024/03/01 10:49:06;;;;;;;46.47;20.30;;;;;;;;;;4999061;28;20415;-72
2024/03/01 10:51:33;;;;;;;52.10;20.23;;;;;;;;;;4998506;28;20426;-72
2024/03/01 10:54:00;;;;;;;39.70;17.17;;;;;;;;;;4999733;28;20890;-73
2024/03/01 10:56:26;;;;;;;50.60;19.70;;;;;;;;;;5000850;28;20446;-73
2024/03/01 10:58:52;;;;;;;44.43;17.93;;;;;;;;;;5000136;28;20462;-72
2024/03/01 11:01:22;;;;;;;43.53;18.60;;;;;;;;;;4999978;28;20403;-72
2024/03/01 11:03:50;;;;;;;42.70;18.07;;;;;;;;;;5001886;28;20411;-73
2024/03/01 11:06:16;;;;;;;40.37;17.63;;;;;;;;;;5006019;28;20469;-73
2024/03/01 11:08:48;;;;;;;39.40;16.60;;;;;;;;;;5010884;28;20415;-72
2024/03/01 11:11:21;;;;;;;36.23;17.90;;;;;;;;;;5006066;28;20426;-72
2024/03/01 11:13:48;;;;;;;39.10;18.63;;;;;;;;;;5002532;28;20452;-74
2024/03/01 11:16:16;;;;;;;38.40;16.63;;;;;;;;;;5010789;28;20478;-72
2024/03/01 11:18:45;;;;;;;37.47;16.87;;;;;;;;;;5006343;28;20524;-73
2024/03/01 11:21:11;;;;;;;30.93;14.97;;;;;;;;;;5016275;28;20461;-72
2024/03/01 11:23:45;;;;;;;37.47;16.70;;;;;;;;;;5019196;28;20438;-72
2024/03/01 11:26:15;;;;;;;34.60;17.90;;;;;;;;;;5024414;28;20436;-72
2024/03/01 11:28:43;;;;;;;38.23;16.10;;;;;;;;;;5022717;28;20418;-72
2024/03/01 11:31:14;;;;;;;38.23;17.27;;;;;;;;;;5019539;28;20410;-73
2024/03/01 11:33:41;;;;;;;36.87;15.93;;;;;;;;;;5017093;28;20417;-72
2024/03/01 11:36:20;;;;;;;34.40;16.40;;;;;;;;;;5014101;28;20525;-71
2024/03/01 11:38:58;;;;;;;36.00;16.43;;;;;;;;;;5012715;28;20468;-72
2024/03/01 11:41:42;;;;;;;41.60;16.43;;;;;;;;;;5013588;28;20494;-73
2024/03/01 11:44:12;;;;;;;40.63;17.10;;;;;;;;;;5014162;28;20477;-71
2024/03/01 11:46:44;;;;;;;27.10;13.47;;;;;;;;;;5013964;28;20422;-73
2024/03/01 11:49:10;;;;;;;25.67;10.37;;;;;;;;;;5013541;28;20417;-72
2024/03/01 11:51:37;;;;;;;23.23;11.70;;;;;;;;;;5013797;28;20809;-72
2024/03/01 11:54:03;;;;;;;22.30;10.30;;;;;;;;;;5011947;28;21106;-72
2024/03/01 11:56:39;;;;;;;24.37;11.67;;;;;;;;;;5017591;28;20433;-72
2024/03/01 11:59:23;;;;;;;30.37;10.83;;;;;;;;;;5017511;28;20390;-72
2024/03/01 12:02:07;;;;;;;27.33;11.00;;;;;;;;;;5017104;28;20772;-72
2024/03/01 12:04:42;;;;;;;24.63;11.20;;;;;;;;;;5017591;28;20420;-73
2024/03/01 12:07:09;;;;;;;24.23;12.23;;;;;;;;;;5016989;28;20421;-72
2024/03/01 12:09:44;;;;;;;19.53;10.50;;;;;;;;;;5015641;28;20424;-73
2024/03/01 12:12:11;;;;;;;18.63;10.07;;;;;;;;;;5017905;28;20495;-73
2024/03/01 12:14:42;;;;;;;20.60;10.80;;;;;;;;;;5017743;28;20504;-73
2024/03/01 12:17:17;;;;;;;22.97;11.03;;;;;;;;;;5017433;28;20509;-72
2024/03/01 12:19:48;;;;;;;24.80;11.37;;;;;;;;;;5015627;28;20516;-74
2024/03/01 12:22:17;;;;;;;21.70;10.70;;;;;;;;;;5018577;28;20755;-72
2024/03/01 12:24:45;;;;;;;19.67;10.27;;;;;;;;;;5016564;28;20414;-72
2024/03/01 12:27:17;;;;;;;19.67;9.83;;;;;;;;;;5016318;28;20430;-73
2024/03/01 12:29:49;;;;;;;20.60;9.73;;;;;;;;;;5015273;28;20937;-72
2024/03/01 12:32:15;;;;;;;18.47;10.67;;;;;;;;;;5015098;28;20422;-72
2024/03/01 12:34:41;;;;;;;19.63;9.60;;;;;;;;;;5020019;28;20905;-72
2024/03/01 12:37:16;;;;;;;22.13;9.17;;;;;;;;;;5020825;28;20465;-72
2024/03/01 12:39:45;;;;;;;18.00;9.27;;;;;;;;;;5016856;28;20404;-72
2024/03/01 12:42:23;;;;;;;24.10;9.50;;;;;;;;;;5023358;28;20772;-71
2024/03/01 12:45:00;;;;;;;26.33;9.97;;;;;;;;;;5021165;28;20394;-72
2024/03/01 12:47:39;;;;;;;18.33;8.67;;;;;;;;;;5019714;28;20573;-72
2024/03/01 12:50:05;;;;;;;17.90;8.87;;;;;;;;;;5031546;28;20434;-73
2024/03/01 12:52:31;;;;;;;15.40;8.30;;;;;;;;;;5037610;28;20422;-72
2024/03/01 12:55:00;;;;;;;12.80;7.40;;;;;;;;;;5037117;28;20409;-72
2024/03/01 12:57:36;;;;;;;18.63;7.87;;;;;;;;;;5032847;28;20457;-73
2024/03/01 13:00:14;;;;;;;11.67;6.90;;;;;;;;;;5028153;28;20414;-73
2024/03/01 13:02:55;;;;;;;16.57;8.60;;;;;;;;;;5024091;28;20409;-72
2024/03/01 13:05:25;;;;;;;18.93;8.33;;;;;;;;;;5022803;28;20952;-73
2024/03/01 13:07:54;;;;;;;14.93;7.57;;;;;;;;;;5020363;28;20438;-72
2024/03/01 13:10:22;;;;;;;17.50;8.47;;;;;;;;;;5019811;28;20414;-72
2024/03/01 13:12:50;;;;;;;15.23;8.60;;;;;;;;;;5018882;28;20751;-72
2024/03/01 13:15:16;;;;;;;16.57;9.40;;;;;;;;;;5012803;28;20441;-72
2024/03/01 13:17:51;;;;;;;21.80;10.40;;;;;;;;;;4997178;28;20477;-71
2024/03/01 13:20:36;;;;;;;21.20;9.60;;;;;;;;;;4998832;28;20407;-72
2024/03/01 13:23:18;;;;;;;30.00;14.63;;;;;;;;;;4997249;28;20449;-71
2024/03/01 13:25:47;;;;;;;34.97;17.20;;;;;;;;;;4995865;28;20780;-72
2024/03/01 13:28:14;;;;;;;36.40;16.30;;;;;;;;;;4998594;28;20430;-72
2024/03/01 13:30:40;;;;;;;46.70;18.60;;;;;;;;;;5008149;28;20415;-72
2024/03/01 13:33:14;;;;;;;36.37;17.43;;;;;;;;;;5004238;28;20421;-72
2024/03/01 13:35:43;;;;;;;41.67;18.60;;;;;;;;;;4997266;28;20418;-72
2024/03/01 13:38:13;;;;;;;43.53;19.47;;;;;;;;;;4995502;28;20459;-72
2024/03/01 13:40:49;;;;;;;39.00;19.17;;;;;;;;;;4995015;28;20415;-72
2024/03/01 13:43:29;;;;;;;42.73;18.43;;;;;;;;;;4995350;28;20415;-72
2024/03/01 13:46:07;;;;;;;39.10;18.10;;;;;;;;;;4996867;28;20812;-72
2024/03/01 13:48:34;;;;;;;38.03;18.10;;;;;;;;;;4996067;28;20411;-72
2024/03/01 13:51:02;;;;;;;38.63;16.93;;;;;;;;;;4995921;28;20464;-71
2024/03/01 13:53:29;;;;;;;34.33;16.40;;;;;;;;;;4994751;28;20461;-72
2024/03/01 13:55:56;;;;;;;33.00;16.70;;;;;;;;;;4994941;28;20469;-72
2024/03/01 13:58:22;;;;;;;32.30;16.17;;;;;;;;;;4994873;28;20835;-71
2024/03/01 14:00:58;;;;;;;40.83;18.53;;;;;;;;;;4994878;28;20498;-71
2024/03/01 14:03:25;;;;;;;41.33;19.13;;;;;;;;;;4994652;28;20410;-71
2024/03/01 14:05:54;;;;;;;36.13;18.07;;;;;;;;;;4994909;28;20928;-73
2024/03/01 14:08:20;;;;;;;48.70;19.13;;;;;;;;;;4995536;28;20411;-72
2024/03/01 14:10:48;;;;;;;44.33;18.23;;;;;;;;;;4995389;28;20415;-73
2024/03/01 14:13:14;;;;;;;45.33;20.27;;;;;;;;;;4994352;28;20469;-73
2024/03/01 14:15:40;;;;;;;44.87;20.10;;;;;;;;;;5002819;28;20433;-73
2024/03/01 14:18:07;;;;;;;40.20;18.70;;;;;;;;;;4996540;28;20966;-73
2024/03/01 14:20:33;;;;;;;44.37;18.00;;;;;;;;;;4994754;28;20446;-72
2024/03/01 14:22:59;;;;;;;35.30;18.20;;;;;;;;;;5002949;28;20886;-72
2024/03/01 14:25:25;;;;;;;35.20;16.83;;;;;;;;;;5007326;28;20479;-72
2024/03/01 14:27:55;;;;;;;32.93;14.90;;;;;;;;;;5007133;28;20517;-72
2024/03/01 14:30:24;;;;;;;30.93;15.00;;;;;;;;;;5008872;28;20415;-71
2024/03/01 14:32:53;;;;;;;25.00;12.13;;;;;;;;;;5009361;28;20411;-71
2024/03/01 14:35:23;;;;;;;26.03;12.50;;;;;;;;;;5006211;28;20411;-71
2024/03/01 14:37:49;;;;;;;24.30;11.63;;;;;;;;;;5003670;28;20514;-72
2024/03/01 14:40:16;;;;;;;27.97;12.77;;;;;;;;;;4996213;28;20423;-71
2024/03/01 14:42:43;;;;;;;27.93;12.30;;;;;;;;;;4996474;28;20875;-73
2024/03/01 14:45:22;;;;;;;20.97;12.00;;;;;;;;;;4995328;28;20858;-72
2024/03/01 14:47:59;;;;;;;24.43;13.43;;;;;;;;;;4996169;28;20869;-73
2024/03/01 14:50:26;;;;;;;25.43;12.80;;;;;;;;;;4996690;28;20414;-71
2024/03/01 14:53:01;;;;;;;24.57;13.13;;;;;;;;;;4995522;28;20427;-72
2024/03/01 14:55:28;;;;;;;28.90;13.53;;;;;;;;;;4996130;28;20426;-72
2024/03/01 14:57:54;;;;;;;28.87;13.97;;;;;;;;;;4996905;28;20472;-73
2024/03/01 15:00:20;;;;;;;26.63;13.80;;;;;;;;;;4993522;28;20438;-71
2024/03/01 15:02:53;;;;;;;35.20;17.10;;;;;;;;;;4994807;28;20473;-71
2024/03/01 15:05:19;;;;;;;40.80;16.87;;;;;;;;;;4994716;28;20834;-72
2024/03/01 15:07:45;;;;;;;39.10;17.10;;;;;;;;;;4993878;28;20918;-72
2024/03/01 15:10:18;;;;;;;47.87;18.57;;;;;;;;;;4995727;28;20423;-72
2024/03/01 15:12:51;;;;;;;34.10;16.73;;;;;;;;;;4998517;28;20420;-73
2024/03/01 15:15:19;;;;;;;38.63;15.87;;;;;;;;;;4995443;28;20407;-72
2024/03/01 15:17:54;;;;;;;32.13;15.57;;;;;;;;;;5009923;28;20473;-71
2024/03/01 15:20:20;;;;;;;38.37;18.63;;;;;;;;;;5001553;28;20918;-73
2024/03/01 15:22:53;;;;;;;35.67;17.70;;;;;;;;;;4992888;28;20499;-72
2024/03/01 15:25:25;;;;;;;34.07;17.20;;;;;;;;;;4993611;28;20411;-72
2024/03/01 15:27:51;;;;;;;43.10;16.80;;;;;;;;;;5008074;28;20497;-72
2024/03/01 15:30:17;;;;;;;38.37;17.30;;;;;;;;;;4998722;28;20407;-73
2024/03/01 15:32:42;;;;;;;40.67;17.07;;;;;;;;;;5013898;28;20418;-71
2024/03/01 15:35:09;;;;;;;36.77;17.57;;;;;;;;;;5010710;28;20431;-72
2024/03/01 15:37:35;;;;;;;39.60;16.20;;;;;;;;;;5010792;28;20466;-73
2024/03/01 15:40:01;;;;;;;37.03;16.90;;;;;;;;;;5028854;28;20416;-72
2024/03/01 15:42:27;;;;;;;33.60;16.63;;;;;;;;;;5017208;28;20407;-72
2024/03/01 15:44:53;;;;;;;39.23;17.80;;;;;;;;;;5012343;28;20410;-72
2024/03/01 15:47:19;;;;;;;42.10;18.83;;;;;;;;;;5015631;28;20458;-72
2024/03/01 15:49:46;;;;;;;46.17;16.60;;;;;;;;;;5004829;28;20425;-74
2024/03/01 15:52:12;;;;;;;35.23;17.40;;;;;;;;;;5002388;28;20570;-72
2024/03/01 15:54:38;;;;;;;36.20;17.60;;;;;;;;;;4999914;28;20886;-72
2024/03/01 15:57:06;;;;;;;34.00;16.90;;;;;;;;;;5022477;28;20478;-72
2024/03/01 15:59:32;;;;;;;40.97;19.37;;;;;;;;;;4998798;28;20892;-71
2024/03/01 16:01:58;;;;;;;43.10;18.33;;;;;;;;;;5012572;28;20490;-72
2024/03/01 16:04:29;;;;;;;45.70;18.80;;;;;;;;;;4997109;28;20745;-72
2024/03/01 16:06:57;;;;;;;37.40;18.40;;;;;;;;;;4997800;28;20820;-73
2024/03/01 16:09:23;;;;;;;47.93;18.53;;;;;;;;;;4997450;28;20415;-72
2024/03/01 16:11:49;;;;;;;42.10;19.60;;;;;;;;;;4997329;28;20411;-71
2024/03/01 16:14:15;;;;;;;35.93;18.63;;;;;;;;;;4997286;28;20772;-72
2024/03/01 16:16:41;;;;;;;40.03;19.90;;;;;;;;;;5011796;28;20825;-72
2024/03/01 16:19:07;;;;;;;37.87;17.70;;;;;;;;;;4997029;28;20833;-73
2024/03/01 16:21:33;;;;;;;35.43;18.23;;;;;;;;;;4996830;28;20407;-72
2024/03/01 16:23:59;;;;;;;41.13;20.63;;;;;;;;;;4996224;28;20405;-72
2024/03/01 16:26:25;;;;;;;42.63;19.60;;;;;;;;;;5011294;28;20431;-72
2024/03/01 16:28:55;;;;;;;38.13;17.20;;;;;;;;;;5011527;28;20441;-72
2024/03/01 16:31:21;;;;;;;42.50;19.50;;;;;;;;;;4996410;28;20458;-72
2024/03/01 16:33:47;;;;;;;46.73;20.50;;;;;;;;;;4996297;28;20426;-72
2024/03/01 16:36:21;;;;;;;42.93;19.37;;;;;;;;;;4996524;28;20569;-72
2024/03/01 16:38:47;;;;;;;41.40;18.13;;;;;;;;;;4996370;28;20523;-71
2024/03/01 16:41:29;;;;;;;40.63;17.10;;;;;;;;;;4995880;28;20422;-72
2024/03/01 16:43:56;;;;;;;43.17;18.10;;;;;;;;;;4996618;28;20414;-71
2024/03/01 16:46:25;;;;;;;37.40;17.97;;;;;;;;;;4999000;28;20847;-73
2024/03/01 16:48:54;;;;;;;39.40;18.90;;;;;;;;;;5012117;28;20418;-72
2024/03/01 16:51:37;;;;;;;42.30;17.30;;;;;;;;;;4996352;28;20423;-73
2024/03/01 16:54:05;;;;;;;41.10;17.63;;;;;;;;;;4996747;28;20514;-72
2024/03/01 16:56:33;;;;;;;41.17;17.63;;;;;;;;;;4996213;28;20438;-72
2024/03/01 16:59:00;;;;;;;35.87;16.30;;;;;;;;;;4996167;28;20486;-72
2024/03/01 17:01:38;;;;;;;41.40;17.33;;;;;;;;;;4996078;28;20411;-72
2024/03/01 17:04:05;;;;;;;41.37;19.03;;;;;;;;;;4995853;28;20413;-72
2024/03/01 17:06:31;;;;;;;43.57;17.77;;;;;;;;;;5000141;28;20423;-72
2024/03/01 17:08:59;;;;;;;36.20;16.60;;;;;;;;;;4999332;28;20499;-73
2024/03/01 17:11:25;;;;;;;41.07;17.53;;;;;;;;;;4996502;28;21021;-71
2024/03/01 17:13:51;;;;;;;35.97;18.00;;;;;;;;;;4996476;28;20430;-72
2024/03/01 17:16:25;;;;;;;33.17;16.00;;;;;;;;;;4998279;28;20446;-72
2024/03/01 17:18:51;;;;;;;37.07;17.03;;;;;;;;;;5006247;28;20484;-72
2024/03/01 17:21:19;;;;;;;35.70;16.80;;;;;;;;;;5007759;28;20458;-72
2024/03/01 17:23:44;;;;;;;48.33;19.40;;;;;;;;;;5013921;28;20460;-72
2024/03/01 17:26:10;;;;;;;38.33;17.73;;;;;;;;;;5014080;28;20846;-70
2024/03/01 17:28:36;;;;;;;36.57;17.60;;;;;;;;;;5017117;28;20992;-71
2024/03/01 17:31:02;;;;;;;42.23;17.60;;;;;;;;;;5020284;28;20418;-73
2024/03/01 17:33:29;;;;;;;39.50;16.33;;;;;;;;;;5021821;28;20418;-72
2024/03/01 17:35:55;;;;;;;33.43;17.43;;;;;;;;;;5019595;28;20493;-73
2024/03/01 17:38:21;;;;;;;38.00;17.40;;;;;;;;;;5018083;28;20485;-71
2024/03/01 17:40:47;;;;;;;39.33;17.13;;;;;;;;;;5007494;28;20424;-71
2024/03/01 17:43:13;;;;;;;38.20;18.47;;;;;;;;;;4996042;28;20507;-73
2024/03/01 17:45:39;;;;;;;37.37;18.00;;;;;;;;;;4995028;28;20426;-73
2024/03/01 17:48:06;;;;;;;38.10;18.30;;;;;;;;;;4995526;28;20419;-74
2024/03/01 17:50:31;;;;;;;42.07;18.23;;;;;;;;;;4993843;28;20453;-73
2024/03/01 17:52:57;;;;;;;47.50;19.70;;;;;;;;;;5004904;28;20914;-72
2024/03/01 17:55:23;;;;;;;42.20;17.60;;;;;;;;;;5012837;28;20613;-72
2024/03/01 17:57:49;;;;;;;38.93;18.70;;;;;;;;;;5013851;28;20482;-73
2024/03/01 18:00:15;;;;;;;41.90;20.07;;;;;;;;;;5013396;28;20418;-73
2024/03/01 18:02:41;;;;;;;37.47;16.97;;;;;;;;;;5013166;28;20801;-73
2024/03/01 18:05:08;;;;;;;44.73;18.47;;;;;;;;;;5014269;28;20427;-73
2024/03/01 18:07:34;;;;;;;38.43;18.07;;;;;;;;;;5013943;28;20442;-72
2024/03/01 18:10:00;;;;;;;40.03;18.97;;;;;;;;;;5014417;28;20430;-73
2024/03/01 18:12:26;;;;;;;37.93;18.90;;;;;;;;;;5022224;28;20493;-72
2024/03/01 18:14:52;;;;;;;35.23;19.30;;;;;;;;;;5017271;28;20422;-73
2024/03/01 18:17:18;;;;;;;38.13;17.40;;;;;;;;;;5037479;23;20669;-80
2024/03/01 18:19:52;;;;;;;33.67;15.33;;;;;;;;;;5006092;28;20435;-80
2024/03/01 18:22:18;;;;;;;36.00;17.53;;;;;;;;;;5005232;28;20426;-79
2024/03/01 18:24:45;;;;;;;35.13;16.00;;;;;;;;;;5004726;28;20418;-79
2024/03/01 18:27:11;;;;;;;40.47;16.70;;;;;;;;;;5005716;28;20442;-80
2024/03/01 18:29:37;;;;;;;40.83;17.93;;;;;;;;;;5018857;28;20420;-80
2024/03/01 18:32:06;;;;;;;36.13;17.97;;;;;;;;;;5017961;28;20897;-80
2024/03/01 18:34:32;;;;;;;35.10;16.60;;;;;;;;;;5017440;28;20434;-82
2024/03/01 18:36:58;;;;;;;35.50;16.67;;;;;;;;;;5010013;28;20517;-82
2024/03/01 18:39:24;;;;;;;42.37;18.23;;;;;;;;;;5008817;28;20423;-79
2024/03/01 18:41:50;;;;;;;39.90;18.00;;;;;;;;;;5016410;28;20403;-79
2024/03/01 18:44:16;;;;;;;36.93;17.83;;;;;;;;;;5015183;28;20438;-81
2024/03/01 18:46:44;;;;;;;39.97;18.93;;;;;;;;;;5016217;28;20437;-80
2024/03/01 18:49:10;;;;;;;40.90;19.67;;;;;;;;;;5015478;28;20753;-79
2024/03/01 18:51:36;;;;;;;39.10;17.23;;;;;;;;;;5015275;28;20496;-80
2024/03/01 18:54:02;;;;;;;37.73;17.50;;;;;;;;;;5015604;28;20466;-81
2024/03/01 18:56:32;;;;;;;30.53;16.70;;;;;;;;;;5016454;28;20434;-79
2024/03/01 18:58:58;;;;;;;38.97;17.27;;;;;;;;;;5015943;28;20557;-80
2024/03/01 19:01:25;;;;;;;41.67;18.50;;;;;;;;;;5005104;28;20426;-80
2024/03/01 19:03:52;;;;;;;39.00;18.33;;;;;;;;;;5013519;28;20410;-82
2024/03/01 19:06:18;;;;;;;41.23;19.43;;;;;;;;;;5013191;28;20449;-81
2024/03/01 19:08:44;;;;;;;56.80;21.63;;;;;;;;;;5008785;28;20418;-81
2024/03/01 19:11:10;;;;;;;47.20;21.60;;;;;;;;;;5021739;28;20440;-83
2024/03/01 19:13:37;;;;;;;42.67;18.17;;;;;;;;;;5020669;28;20953;-81
2024/03/01 19:16:05;;;;;;;43.67;19.13;;;;;;;;;;5014360;28;20944;-82
2024/03/01 19:18:31;;;;;;;42.73;19.17;;;;;;;;;;5016387;28;20469;-82
2024/03/01 19:20:57;;;;;;;43.97;19.10;;;;;;;;;;5018527;28;20820;-82
2024/03/01 19:23:23;;;;;;;44.67;19.17;;;;;;;;;;5017399;28;20446;-81
2024/03/01 19:25:49;;;;;;;43.40;19.00;;;;;;;;;;5018627;28;20473;-81
2024/03/01 19:28:15;;;;;;;36.90;18.03;;;;;;;;;;5018943;28;20472;-83
2024/03/01 19:30:41;;;;;;;43.60;18.93;;;;;;;;;;5019206;28;20418;-84
2024/03/01 19:33:07;;;;;;;36.20;18.80;;;;;;;;;;5018614;28;20499;-83
2024/03/01 19:35:33;;;;;;;44.77;18.63;;;;;;;;;;5017739;28;20422;-83
2024/03/01 19:37:59;;;;;;;45.73;20.00;;;;;;;;;;5019613;28;20486;-83
2024/03/01 19:40:29;;;;;;;45.50;20.53;;;;;;;;;;5021019;28;20421;-83
2024/03/01 19:42:55;;;;;;;41.53;20.83;;;;;;;;;;5016179;28;20453;-82
2024/03/01 19:45:21;;;;;;;37.57;18.93;;;;;;;;;;5017380;28;20418;-82
2024/03/01 19:47:47;;;;;;;44.60;19.57;;;;;;;;;;5018476;28;20438;-83
2024/03/01 19:50:13;;;;;;;43.63;21.10;;;;;;;;;;5017535;28;20421;-81
2024/03/01 19:52:39;;;;;;;45.80;20.20;;;;;;;;;;5017852;28;20453;-82
2024/03/01 19:55:05;;;;;;;51.00;20.93;;;;;;;;;;5018644;28;20479;-82
2024/03/01 19:57:31;;;;;;;47.20;22.67;;;;;;;;;;5018103;28;20454;-82
2024/03/01 19:59:57;;;;;;;39.90;19.67;;;;;;;;;;5018250;28;20410;-82
2024/03/01 20:02:24;;;;;;;50.13;20.87;;;;;;;;;;5021530;28;20418;-83
2024/03/01 20:04:51;;;;;;;40.93;22.60;;;;;;;;;;5022773;28;20414;-81
2024/03/01 20:07:17;;;;;;;52.63;23.70;;;;;;;;;;5018543;28;20433;-81
2024/03/01 20:09:43;;;;;;;49.73;22.30;;;;;;;;;;5011401;28;20518;-80
2024/03/01 20:12:10;;;;;;;46.30;20.30;;;;;;;;;;5017551;28;20444;-78
2024/03/01 20:14:36;;;;;;;47.63;21.93;;;;;;;;;;5012144;28;20422;-76
2024/03/01 20:17:02;;;;;;;55.43;25.77;;;;;;;;;;5006835;28;20465;-79
2024/03/01 20:19:28;;;;;;;49.47;23.90;;;;;;;;;;5016968;28;20414;-80
2024/03/01 20:21:53;;;;;;;48.50;23.97;;;;;;;;;;5020346;28;20416;-80
2024/03/01 20:24:20;;;;;;;52.60;22.07;;;;;;;;;;5018831;28;20425;-80
2024/03/01 20:26:46;;;;;;;48.97;22.07;;;;;;;;;;5010030;28;20591;-78
2024/03/01 20:29:14;;;;;;;59.63;23.37;;;;;;;;;;5014968;28;20501;-80